createdAt,value
2018-11-20T00:03:07.858Z,99.90
2018-11-20T00:05:51.038Z,99.90
2018-11-20T00:11:18.354Z,99.90
2018-11-20T00:16:44.829Z,99.90
2018-11-20T00:22:12.385Z,99.90
2018-11-20T00:30:56.704Z,99.90
2018-11-20T00:36:38.405Z,99.90
2018-11-20T00:39:20.208Z,99.90
2018-11-20T00:44:48.835Z,99.90
2018-11-20T00:53:21.228Z,99.90
2018-11-20T00:56:02.561Z,99.90
2018-11-20T01:01:23.864Z,99.90
2018-11-20T01:07:33.295Z,99.90
2018-11-20T01:15:58.022Z,99.90
2018-11-20T01:18:39.279Z,99.90
2018-11-20T01:24:04.663Z,99.90
2018-11-20T01:32:36.728Z,99.90
2018-11-20T01:38:23.623Z,99.90
2018-11-20T01:43:45.321Z,99.90
2018-11-20T01:49:12.020Z,99.90
2018-11-20T01:55:02.420Z,99.90
2018-11-20T02:00:49.725Z,99.90
2018-11-20T02:03:46.167Z,99.90
2018-11-20T02:09:32.345Z,99.90
2018-11-20T02:12:36.054Z,99.90
2018-11-20T02:18:02.530Z,99.90
2018-11-20T02:23:50.517Z,99.90
2018-11-20T02:29:15.762Z,99.90
2018-11-20T02:32:21.436Z,99.90
2018-11-20T02:35:02.829Z,99.90
2018-11-20T02:41:09.840Z,99.90
2018-11-20T02:46:55.480Z,99.90
2018-11-20T02:55:21.053Z,99.90
2018-11-20T02:58:02.404Z,99.90
2018-11-20T03:03:50.826Z,99.90
2018-11-20T03:09:19.568Z,99.90
2018-11-20T03:14:46.248Z,99.90
2018-11-20T03:20:16.878Z,99.90
2018-11-20T03:29:30.531Z,99.90
2018-11-20T03:32:11.843Z,99.90
2018-11-20T03:37:58.290Z,99.90
2018-11-20T03:43:48.398Z,99.90
2018-11-20T03:46:40.669Z,99.90
2018-11-20T03:49:44.193Z,99.90
2018-11-20T03:55:10.151Z,99.90
2018-11-20T04:00:35.733Z,99.90
2018-11-20T04:06:02.949Z,99.90
2018-11-20T04:15:02.808Z,99.90
2018-11-20T04:17:45.417Z,99.90
2018-11-20T04:32:29.936Z,99.90
2018-11-20T04:35:12.357Z,99.90
2018-11-20T04:40:40.157Z,99.90
2018-11-20T04:46:25.409Z,99.90
2018-11-20T04:52:34.451Z,99.90
2018-11-20T04:57:59.656Z,99.90
2018-11-20T05:00:59.529Z,99.90
2018-11-20T05:03:41.173Z,99.90
2018-11-20T05:09:28.348Z,99.90
2018-11-20T05:14:54.860Z,99.90
2018-11-20T05:20:21.425Z,99.90
2018-11-20T05:26:07.321Z,99.90
2018-11-20T05:31:32.171Z,99.90
2018-11-20T05:40:11.172Z,99.90
2018-11-20T05:42:53.215Z,99.90
2018-11-20T05:48:19.944Z,99.90
2018-11-20T05:54:29.412Z,99.90
2018-11-20T06:00:14.979Z,99.90
2018-11-20T06:06:22.939Z,99.90
2018-11-20T06:09:18.087Z,99.90
2018-11-20T06:11:59.161Z,99.90
2018-11-20T06:15:05.429Z,99.90
2018-11-20T06:17:47.714Z,99.90
2018-11-20T06:20:28.176Z,99.90
2018-11-20T06:23:09.537Z,99.90
2018-11-20T06:26:10.243Z,99.90
2018-11-20T06:31:57.597Z,99.90
2018-11-20T06:37:43.739Z,99.90
2018-11-20T06:40:45.329Z,99.90
2018-11-20T06:43:48.173Z,99.90
2018-11-20T06:46:29.453Z,99.90
2018-11-20T06:49:21.134Z,99.90
2018-11-20T06:52:23.249Z,99.90
2018-11-20T06:55:23.109Z,99.90
2018-11-20T07:01:09.963Z,99.90
2018-11-20T07:10:29.579Z,99.90
2018-11-20T07:20:15.100Z,99.90
2018-11-20T07:22:56.543Z,99.90
2018-11-20T07:25:56.479Z,99.90
2018-11-20T07:28:55.500Z,99.90
2018-11-20T07:34:21.705Z,99.90
2018-11-20T07:40:29.993Z,99.90
2018-11-20T07:43:21.679Z,99.90
2018-11-20T07:46:25.285Z,99.90
2018-11-20T07:52:33.348Z,99.90
2018-11-20T07:58:19.927Z,99.90
2018-11-20T08:03:45.718Z,99.90
2018-11-20T08:12:33.339Z,99.90
2018-11-20T08:15:15.521Z,99.90
2018-11-20T08:18:18.567Z,99.90
2018-11-20T08:20:59.362Z,99.90
2018-11-20T08:23:56.909Z,99.90
2018-11-20T08:27:00.722Z,99.90
2018-11-20T08:35:50.778Z,99.90
2018-11-20T08:41:48.687Z,99.90
2018-11-20T08:47:41.150Z,99.90
2018-11-20T08:53:52.242Z,95.70
2018-11-20T08:56:33.192Z,90.70
2018-11-20T09:05:25.431Z,74.30
2018-11-20T09:08:10.940Z,70.60
2018-11-20T09:16:41.106Z,68.30
2018-11-20T09:22:47.623Z,58.60
2018-11-20T09:28:33.301Z,58.70
2018-11-20T09:37:16.880Z,55.80
2018-11-20T09:39:58.374Z,58.10
2018-11-20T09:49:08.617Z,53.90
2018-11-20T09:52:12.168Z,55.80
2018-11-20T09:57:39.270Z,54.70
2018-11-20T10:09:43.276Z,54.20
2018-11-20T10:12:25.433Z,54.70
2018-11-20T10:15:32.635Z,55.00
2018-11-20T10:18:14.021Z,53.80
2018-11-20T10:24:00.840Z,54.00
2018-11-20T10:32:54.557Z,52.00
2018-11-20T10:35:43.692Z,51.50
2018-11-20T10:44:18.251Z,51.80
2018-11-20T10:46:59.238Z,49.80
2018-11-20T10:52:45.376Z,48.60
2018-11-20T10:58:11.517Z,48.80
2018-11-20T11:03:37.400Z,47.50
2018-11-20T11:09:22.735Z,47.70
2018-11-20T11:15:30.441Z,47.50
2018-11-20T11:21:16.266Z,47.30
2018-11-20T11:26:47.243Z,47.60
2018-11-20T11:32:13.243Z,45.50
2018-11-20T11:37:39.879Z,47.20
2018-11-20T11:46:32.530Z,47.80
2018-11-20T11:49:15.084Z,47.60
2018-11-20T11:54:41.520Z,47.30
2018-11-20T12:00:26.814Z,47.40
2018-11-20T12:03:19.655Z,49.10
2018-11-20T12:12:37.561Z,47.60
2018-11-20T12:18:03.297Z,46.60
2018-11-20T12:27:11.930Z,49.40
2018-11-20T12:30:15.649Z,48.70
2018-11-20T12:33:13.269Z,48.30
2018-11-20T12:36:16.661Z,49.30
2018-11-20T12:42:25.229Z,50.50
2018-11-20T12:48:12.318Z,49.80
2018-11-20T12:53:38.359Z,48.60
2018-11-20T12:59:23.032Z,48.00
2018-11-20T13:08:13.573Z,49.80
2018-11-20T13:10:56.302Z,51.00
2018-11-20T13:16:22.412Z,49.40
2018-11-20T13:19:29.373Z,49.40
2018-11-20T13:25:18.718Z,51.50
2018-11-20T13:30:47.367Z,52.40
2018-11-20T13:36:13.560Z,52.70
2018-11-20T13:41:39.945Z,55.90
2018-11-20T13:47:06.826Z,57.70
2018-11-20T13:55:24.802Z,58.60
2018-11-20T13:58:03.803Z,59.80
2018-11-20T14:03:33.632Z,64.80
2018-11-20T14:09:21.470Z,65.80
2018-11-20T14:17:39.496Z,66.00
2018-11-20T14:20:24.668Z,66.70
2018-11-20T14:26:12.001Z,68.90
2018-11-20T14:41:13.941Z,74.00
2018-11-20T14:43:55.922Z,74.90
2018-11-20T14:46:56.285Z,75.00
2018-11-20T14:49:41.082Z,75.90
2018-11-20T14:55:05.471Z,78.90
2018-11-20T15:03:30.539Z,80.10
2018-11-20T15:06:21.172Z,81.30
2018-11-20T15:15:03.704Z,84.30
2018-11-20T15:18:08.286Z,85.00
2018-11-20T15:20:49.216Z,88.10
2018-11-20T15:26:14.882Z,92.30
2018-11-20T16:01:23.232Z,99.10
2018-11-20T16:04:29.575Z,98.30
2018-11-20T16:11:03.753Z,99.30
2018-11-20T16:14:11.027Z,99.90
2018-11-20T16:20:32.656Z,99.90
2018-11-20T16:37:13.544Z,99.90
2018-11-20T16:40:19.393Z,99.90
2018-11-20T16:43:26.675Z,99.90
2018-11-20T16:46:34.630Z,99.90
2018-11-20T16:49:42.234Z,99.90
2018-11-20T16:53:08.839Z,99.90
2018-11-20T16:56:16.322Z,99.90
2018-11-20T16:59:24.561Z,99.90
2018-11-20T17:06:00.979Z,99.90
2018-11-20T17:12:01.940Z,99.90
2018-11-20T17:15:09.256Z,99.90
2018-11-20T17:18:23.011Z,99.90
2018-11-20T17:21:45.012Z,99.90
2018-11-20T17:27:32.290Z,99.90
2018-11-20T17:33:35.955Z,99.90
2018-11-20T17:37:02.969Z,99.90
2018-11-20T17:40:10.879Z,99.90
2018-11-20T17:58:32.683Z,99.90
2018-11-20T18:21:21.733Z,99.90
2018-11-20T18:24:29.209Z,99.90
2018-11-20T18:30:39.532Z,99.90
2018-11-20T18:33:47.793Z,99.90
2018-11-20T18:43:39.401Z,99.90
2018-11-20T18:50:03.867Z,99.90
2018-11-20T18:56:38.340Z,99.90
2018-11-20T18:59:46.443Z,99.90
2018-11-20T19:02:54.993Z,99.90
2018-11-20T19:21:36.615Z,99.90
2018-11-20T19:24:44.072Z,99.90
2018-11-20T19:28:11.096Z,99.90
2018-11-20T19:34:33.372Z,99.90
2018-11-20T19:37:42.861Z,99.90
2018-11-20T19:40:50.255Z,99.90
2018-11-20T20:04:44.993Z,99.90
2018-11-20T20:11:19.007Z,99.90
2018-11-20T20:14:26.714Z,99.90
2018-11-20T20:17:34.943Z,99.90
2018-11-20T20:23:57.368Z,99.90
2018-11-20T20:27:04.852Z,99.90
2018-11-20T20:30:13.653Z,99.90
2018-11-20T20:33:20.888Z,99.90
2018-11-20T20:36:28.473Z,99.90
2018-11-20T20:39:35.704Z,99.90
2018-11-20T20:52:18.685Z,99.90
2018-11-20T21:03:41.530Z,99.90
2018-11-20T21:06:48.843Z,99.90
2018-11-20T21:13:08.726Z,99.90
2018-11-20T21:16:16.290Z,99.90
2018-11-20T21:19:24.863Z,99.90
2018-11-20T21:25:41.511Z,99.90
2018-11-20T21:28:48.951Z,99.90
2018-11-20T21:31:56.083Z,99.90
2018-11-20T21:35:04.078Z,99.90
2018-11-20T21:38:14.434Z,99.90
2018-11-20T21:41:21.998Z,99.90
2018-11-20T21:44:29.217Z,99.90
2018-11-20T21:50:41.399Z,99.90
2018-11-20T21:57:04.758Z,99.90
2018-11-20T22:00:14.094Z,99.90
2018-11-20T22:03:22.767Z,99.90
2018-11-20T22:12:43.125Z,99.90
2018-11-20T22:18:44.576Z,99.90
2018-11-20T22:21:58.356Z,99.90
2018-11-20T22:25:05.971Z,99.90
2018-11-20T22:28:32.526Z,99.90
2018-11-20T22:31:40.146Z,99.90
2018-11-20T22:34:47.817Z,99.90
2018-11-20T22:44:25.477Z,99.90
2018-11-20T22:47:32.913Z,99.90
2018-11-20T22:50:30.801Z,99.90
2018-11-20T22:53:37.382Z,99.90
2018-11-20T22:56:44.597Z,99.90
2018-11-20T22:59:51.844Z,99.90
2018-11-20T23:02:59.155Z,99.90
2018-11-20T23:06:06.234Z,99.90
2018-11-20T23:08:57.144Z,99.90
2018-11-20T23:14:38.940Z,99.90
2018-11-20T23:20:20.797Z,99.90
2018-11-20T23:23:12.664Z,99.90
2018-11-20T23:26:04.015Z,99.90
2018-11-20T23:28:55.874Z,99.90
2018-11-20T23:44:03.337Z,99.90
2018-11-20T23:46:57.873Z,99.90
2018-11-20T23:49:46.370Z,99.90
2018-11-20T23:52:34.564Z,99.90
2018-11-20T23:55:23.302Z,99.90
2018-11-20T23:58:11.233Z,99.90
